sensor_id;sensor_type;location;lat;lon;timestamp;P1;durP1;ratioP1;P2;durP2;ratioP2
2706;SDS011;7819;48.046;7.642;2023-08-06T00:01:54;3.03;;;1.80;;
2706;SDS011;7819;48.046;7.642;2023-08-06T00:04:19;2.17;;;1.83;;
2706;SDS011;7819;48.046;7.642;2023-08-06T00:06:44;2.50;;;2.00;;
2706;SDS011;7819;48.046;7.642;2023-08-06T00:09:10;3.13;;;2.60;;
2706;SDS011;7819;48.046;7.642;2023-08-06T00:11:35;2.27;;;1.60;;
2706;SDS011;7819;48.046;7.642;2023-08-06T00:14:00;2.40;;;1.63;;
2706;SDS011;7819;48.046;7.642;2023-08-06T00:16:25;3.47;;;2.03;;
2706;SDS011;7819;48.046;7.642;2023-08-06T00:18:50;3.57;;;1.80;;
2706;SDS011;7819;48.046;7.642;2023-08-06T00:21:15;2.70;;;1.83;;
2706;SDS011;7819;48.046;7.642;2023-08-06T00:23:41;4.13;;;1.50;;
2706;SDS011;7819;48.046;7.642;2023-08-06T00:26:06;2.53;;;1.93;;
2706;SDS011;7819;48.046;7.642;2023-08-06T00:28:31;4.57;;;1.70;;
2706;SDS011;7819;48.046;7.642;2023-08-06T00:30:56;2.40;;;1.53;;
2706;SDS011;7819;48.046;7.642;2023-08-06T00:33:22;2.60;;;2.13;;
2706;SDS011;7819;48.046;7.642;2023-08-06T00:35:48;3.50;;;1.50;;
2706;SDS011;7819;48.046;7.642;2023-08-06T00:38:13;2.73;;;1.87;;
2706;SDS011;7819;48.046;7.642;2023-08-06T00:40:38;3.13;;;1.73;;
2706;SDS011;7819;48.046;7.642;2023-08-06T00:43:03;3.03;;;1.63;;
2706;SDS011;7819;48.046;7.642;2023-08-06T00:45:28;2.40;;;2.00;;
2706;SDS011;7819;48.046;7.642;2023-08-06T00:47:54;4.10;;;2.17;;
2706;SDS011;7819;48.046;7.642;2023-08-06T00:50:20;2.37;;;1.60;;
2706;SDS011;7819;48.046;7.642;2023-08-06T00:52:47;2.50;;;1.70;;
2706;SDS011;7819;48.046;7.642;2023-08-06T00:55:12;6.07;;;3.27;;
2706;SDS011;7819;48.046;7.642;2023-08-06T00:57:37;2.20;;;1.70;;
2706;SDS011;7819;48.046;7.642;2023-08-06T01:00:03;3.30;;;1.97;;
2706;SDS011;7819;48.046;7.642;2023-08-06T01:02:29;2.77;;;1.90;;
2706;SDS011;7819;48.046;7.642;2023-08-06T01:04:54;3.40;;;1.77;;
2706;SDS011;7819;48.046;7.642;2023-08-06T01:07:33;2.10;;;1.60;;
2706;SDS011;7819;48.046;7.642;2023-08-06T01:12:48;2.60;;;1.70;;
2706;SDS011;7819;48.046;7.642;2023-08-06T01:15:18;3.20;;;1.97;;
2706;SDS011;7819;48.046;7.642;2023-08-06T01:17:44;2.20;;;1.90;;
2706;SDS011;7819;48.046;7.642;2023-08-06T01:20:10;2.43;;;1.80;;
2706;SDS011;7819;48.046;7.642;2023-08-06T01:22:35;3.00;;;1.60;;
2706;SDS011;7819;48.046;7.642;2023-08-06T01:25:00;2.10;;;1.63;;
2706;SDS011;7819;48.046;7.642;2023-08-06T01:27:28;2.60;;;1.87;;
2706;SDS011;7819;48.046;7.642;2023-08-06T01:30:00;2.67;;;1.60;;
2706;SDS011;7819;48.046;7.642;2023-08-06T01:32:29;5.70;;;1.90;;
2706;SDS011;7819;48.046;7.642;2023-08-06T01:34:54;2.30;;;1.50;;
2706;SDS011;7819;48.046;7.642;2023-08-06T01:37:20;3.60;;;1.60;;
2706;SDS011;7819;48.046;7.642;2023-08-06T01:39:46;2.93;;;1.60;;
2706;SDS011;7819;48.046;7.642;2023-08-06T01:42:11;2.27;;;1.87;;
2706;SDS011;7819;48.046;7.642;2023-08-06T01:44:36;3.17;;;1.53;;
2706;SDS011;7819;48.046;7.642;2023-08-06T01:47:02;3.33;;;2.10;;
2706;SDS011;7819;48.046;7.642;2023-08-06T01:49:27;2.40;;;2.00;;
2706;SDS011;7819;48.046;7.642;2023-08-06T01:51:52;2.77;;;1.40;;
2706;SDS011;7819;48.046;7.642;2023-08-06T01:54:17;4.40;;;1.73;;
2706;SDS011;7819;48.046;7.642;2023-08-06T01:56:42;1.87;;;1.43;;
2706;SDS011;7819;48.046;7.642;2023-08-06T01:59:08;2.20;;;1.70;;
2706;SDS011;7819;48.046;7.642;2023-08-06T02:01:33;2.43;;;2.10;;
2706;SDS011;7819;48.046;7.642;2023-08-06T02:03:58;4.63;;;2.17;;
2706;SDS011;7819;48.046;7.642;2023-08-06T02:06:23;3.40;;;1.70;;
2706;SDS011;7819;48.046;7.642;2023-08-06T02:08:48;2.80;;;1.70;;
2706;SDS011;7819;48.046;7.642;2023-08-06T02:11:13;3.90;;;2.20;;
2706;SDS011;7819;48.046;7.642;2023-08-06T02:13:38;3.53;;;2.40;;
2706;SDS011;7819;48.046;7.642;2023-08-06T02:16:06;5.40;;;2.13;;
2706;SDS011;7819;48.046;7.642;2023-08-06T02:18:31;3.10;;;2.50;;
2706;SDS011;7819;48.046;7.642;2023-08-06T02:20:57;4.40;;;2.27;;
2706;SDS011;7819;48.046;7.642;2023-08-06T02:23:22;2.30;;;2.00;;
2706;SDS011;7819;48.046;7.642;2023-08-06T02:25:48;3.57;;;2.23;;
2706;SDS011;7819;48.046;7.642;2023-08-06T02:28:13;5.30;;;2.20;;
2706;SDS011;7819;48.046;7.642;2023-08-06T02:30:38;2.93;;;2.13;;
2706;SDS011;7819;48.046;7.642;2023-08-06T02:33:03;2.83;;;1.90;;
2706;SDS011;7819;48.046;7.642;2023-08-06T02:35:28;3.07;;;2.17;;
2706;SDS011;7819;48.046;7.642;2023-08-06T02:37:53;2.77;;;1.90;;
2706;SDS011;7819;48.046;7.642;2023-08-06T02:40:19;1.60;;;1.30;;
2706;SDS011;7819;48.046;7.642;2023-08-06T02:42:45;4.30;;;2.33;;
2706;SDS011;7819;48.046;7.642;2023-08-06T02:45:10;2.33;;;2.07;;
2706;SDS011;7819;48.046;7.642;2023-08-06T02:47:35;2.30;;;2.05;;
2706;SDS011;7819;48.046;7.642;2023-08-06T02:50:01;2.63;;;1.70;;
2706;SDS011;7819;48.046;7.642;2023-08-06T02:52:26;2.40;;;1.73;;
2706;SDS011;7819;48.046;7.642;2023-08-06T02:54:51;2.30;;;1.80;;
2706;SDS011;7819;48.046;7.642;2023-08-06T02:57:16;5.80;;;1.70;;
2706;SDS011;7819;48.046;7.642;2023-08-06T02:59:41;2.73;;;2.07;;
2706;SDS011;7819;48.046;7.642;2023-08-06T03:02:07;2.63;;;1.90;;
2706;SDS011;7819;48.046;7.642;2023-08-06T03:04:32;1.93;;;1.80;;
2706;SDS011;7819;48.046;7.642;2023-08-06T03:06:57;2.40;;;1.90;;
2706;SDS011;7819;48.046;7.642;2023-08-06T03:09:22;1.83;;;1.73;;
2706;SDS011;7819;48.046;7.642;2023-08-06T03:11:47;2.90;;;1.60;;
2706;SDS011;7819;48.046;7.642;2023-08-06T03:14:12;1.83;;;1.50;;
2706;SDS011;7819;48.046;7.642;2023-08-06T03:16:37;1.40;;;1.30;;
2706;SDS011;7819;48.046;7.642;2023-08-06T03:19:03;1.50;;;1.30;;
2706;SDS011;7819;48.046;7.642;2023-08-06T03:21:28;1.60;;;1.10;;
2706;SDS011;7819;48.046;7.642;2023-08-06T03:23:53;3.77;;;1.03;;
2706;SDS011;7819;48.046;7.642;2023-08-06T03:26:18;1.20;;;0.90;;
2706;SDS011;7819;48.046;7.642;2023-08-06T03:28:43;2.33;;;0.63;;
2706;SDS011;7819;48.046;7.642;2023-08-06T03:31:08;1.03;;;0.60;;
2706;SDS011;7819;48.046;7.642;2023-08-06T03:33:34;1.00;;;0.60;;
2706;SDS011;7819;48.046;7.642;2023-08-06T03:35:59;1.80;;;0.80;;
2706;SDS011;7819;48.046;7.642;2023-08-06T03:38:24;1.00;;;0.77;;
2706;SDS011;7819;48.046;7.642;2023-08-06T03:40:49;1.30;;;0.90;;
2706;SDS011;7819;48.046;7.642;2023-08-06T03:43:15;1.20;;;0.63;;
2706;SDS011;7819;48.046;7.642;2023-08-06T03:45:40;1.30;;;0.70;;
2706;SDS011;7819;48.046;7.642;2023-08-06T03:48:06;1.40;;;0.70;;
2706;SDS011;7819;48.046;7.642;2023-08-06T03:50:31;1.47;;;0.60;;
2706;SDS011;7819;48.046;7.642;2023-08-06T03:52:56;1.50;;;0.57;;
2706;SDS011;7819;48.046;7.642;2023-08-06T03:55:21;0.97;;;0.60;;
2706;SDS011;7819;48.046;7.642;2023-08-06T03:57:47;1.93;;;0.80;;
2706;SDS011;7819;48.046;7.642;2023-08-06T04:00:12;1.43;;;0.80;;
2706;SDS011;7819;48.046;7.642;2023-08-06T04:02:37;1.20;;;0.90;;
2706;SDS011;7819;48.046;7.642;2023-08-06T04:05:02;1.73;;;0.90;;
2706;SDS011;7819;48.046;7.642;2023-08-06T04:07:28;1.23;;;0.90;;
2706;SDS011;7819;48.046;7.642;2023-08-06T04:10:00;2.43;;;0.90;;
2706;SDS011;7819;48.046;7.642;2023-08-06T04:12:25;1.83;;;1.13;;
2706;SDS011;7819;48.046;7.642;2023-08-06T04:14:51;1.07;;;0.67;;
2706;SDS011;7819;48.046;7.642;2023-08-06T04:17:19;2.30;;;1.20;;
2706;SDS011;7819;48.046;7.642;2023-08-06T04:19:48;4.50;;;1.00;;
2706;SDS011;7819;48.046;7.642;2023-08-06T04:22:14;1.83;;;0.87;;
2706;SDS011;7819;48.046;7.642;2023-08-06T04:24:39;2.33;;;1.27;;
2706;SDS011;7819;48.046;7.642;2023-08-06T04:27:04;1.70;;;1.03;;
2706;SDS011;7819;48.046;7.642;2023-08-06T04:29:29;5.43;;;1.23;;
2706;SDS011;7819;48.046;7.642;2023-08-06T04:31:55;3.03;;;1.00;;
2706;SDS011;7819;48.046;7.642;2023-08-06T04:34:20;1.63;;;1.20;;
2706;SDS011;7819;48.046;7.642;2023-08-06T04:36:45;1.60;;;0.77;;
2706;SDS011;7819;48.046;7.642;2023-08-06T04:39:10;1.93;;;0.87;;
2706;SDS011;7819;48.046;7.642;2023-08-06T04:41:35;3.87;;;1.40;;
2706;SDS011;7819;48.046;7.642;2023-08-06T04:44:00;1.70;;;1.17;;
2706;SDS011;7819;48.046;7.642;2023-08-06T04:46:26;1.73;;;1.20;;
2706;SDS011;7819;48.046;7.642;2023-08-06T04:48:51;3.53;;;1.30;;
2706;SDS011;7819;48.046;7.642;2023-08-06T04:51:16;1.87;;;1.30;;
2706;SDS011;7819;48.046;7.642;2023-08-06T04:53:42;10.07;;;2.10;;
2706;SDS011;7819;48.046;7.642;2023-08-06T04:56:07;3.47;;;1.70;;
2706;SDS011;7819;48.046;7.642;2023-08-06T04:58:32;2.07;;;1.20;;
2706;SDS011;7819;48.046;7.642;2023-08-06T05:00:57;1.60;;;1.17;;
2706;SDS011;7819;48.046;7.642;2023-08-06T05:03:22;2.43;;;1.20;;
2706;SDS011;7819;48.046;7.642;2023-08-06T05:05:48;1.90;;;1.40;;
2706;SDS011;7819;48.046;7.642;2023-08-06T05:08:16;2.60;;;1.80;;
2706;SDS011;7819;48.046;7.642;2023-08-06T05:10:42;3.43;;;1.67;;
2706;SDS011;7819;48.046;7.642;2023-08-06T05:13:07;1.53;;;1.20;;
2706;SDS011;7819;48.046;7.642;2023-08-06T05:15:32;2.70;;;1.40;;
2706;SDS011;7819;48.046;7.642;2023-08-06T05:17:58;2.23;;;1.20;;
2706;SDS011;7819;48.046;7.642;2023-08-06T05:20:23;2.50;;;1.23;;
2706;SDS011;7819;48.046;7.642;2023-08-06T05:22:48;5.50;;;1.37;;
2706;SDS011;7819;48.046;7.642;2023-08-06T05:25:14;5.50;;;1.73;;
2706;SDS011;7819;48.046;7.642;2023-08-06T05:27:39;1.80;;;1.20;;
2706;SDS011;7819;48.046;7.642;2023-08-06T05:30:05;2.40;;;1.27;;
2706;SDS011;7819;48.046;7.642;2023-08-06T05:32:30;3.43;;;1.60;;
2706;SDS011;7819;48.046;7.642;2023-08-06T05:34:55;3.70;;;1.67;;
2706;SDS011;7819;48.046;7.642;2023-08-06T05:37:20;2.70;;;1.47;;
2706;SDS011;7819;48.046;7.642;2023-08-06T05:39:46;7.43;;;1.57;;
2706;SDS011;7819;48.046;7.642;2023-08-06T05:42:11;3.20;;;2.10;;
2706;SDS011;7819;48.046;7.642;2023-08-06T05:44:36;1.67;;;1.17;;
2706;SDS011;7819;48.046;7.642;2023-08-06T05:47:01;5.37;;;1.53;;
2706;SDS011;7819;48.046;7.642;2023-08-06T05:49:26;2.50;;;1.27;;
2706;SDS011;7819;48.046;7.642;2023-08-06T05:51:52;2.50;;;1.30;;
2706;SDS011;7819;48.046;7.642;2023-08-06T05:54:20;3.43;;;1.80;;
2706;SDS011;7819;48.046;7.642;2023-08-06T05:56:45;2.37;;;1.30;;
2706;SDS011;7819;48.046;7.642;2023-08-06T05:59:10;3.00;;;1.70;;
2706;SDS011;7819;48.046;7.642;2023-08-06T06:01:35;2.40;;;1.30;;
2706;SDS011;7819;48.046;7.642;2023-08-06T06:04:01;3.03;;;1.40;;
2706;SDS011;7819;48.046;7.642;2023-08-06T06:06:26;2.70;;;1.40;;
2706;SDS011;7819;48.046;7.642;2023-08-06T06:08:51;1.53;;;1.20;;
2706;SDS011;7819;48.046;7.642;2023-08-06T06:11:17;2.53;;;1.50;;
2706;SDS011;7819;48.046;7.642;2023-08-06T06:13:44;2.47;;;1.43;;
2706;SDS011;7819;48.046;7.642;2023-08-06T06:16:09;2.37;;;1.50;;
2706;SDS011;7819;48.046;7.642;2023-08-06T06:18:34;2.60;;;1.50;;
2706;SDS011;7819;48.046;7.642;2023-08-06T06:21:00;3.60;;;1.13;;
2706;SDS011;7819;48.046;7.642;2023-08-06T06:23:25;2.57;;;1.37;;
2706;SDS011;7819;48.046;7.642;2023-08-06T06:25:50;2.50;;;1.40;;
2706;SDS011;7819;48.046;7.642;2023-08-06T06:28:17;2.60;;;1.60;;
2706;SDS011;7819;48.046;7.642;2023-08-06T06:30:42;3.13;;;1.60;;
2706;SDS011;7819;48.046;7.642;2023-08-06T06:33:07;1.47;;;1.17;;
2706;SDS011;7819;48.046;7.642;2023-08-06T06:35:32;5.13;;;2.30;;
2706;SDS011;7819;48.046;7.642;2023-08-06T06:37:57;2.20;;;1.30;;
2706;SDS011;7819;48.046;7.642;2023-08-06T06:40:23;1.52;;;1.20;;
2706;SDS011;7819;48.046;7.642;2023-08-06T06:42:48;1.40;;;1.17;;
2706;SDS011;7819;48.046;7.642;2023-08-06T06:45:13;4.47;;;1.80;;
2706;SDS011;7819;48.046;7.642;2023-08-06T06:47:38;1.30;;;1.07;;
2706;SDS011;7819;48.046;7.642;2023-08-06T06:50:03;2.43;;;1.37;;
2706;SDS011;7819;48.046;7.642;2023-08-06T06:52:29;1.97;;;1.10;;
2706;SDS011;7819;48.046;7.642;2023-08-06T06:54:54;1.90;;;1.10;;
2706;SDS011;7819;48.046;7.642;2023-08-06T06:57:19;1.70;;;1.07;;
2706;SDS011;7819;48.046;7.642;2023-08-06T06:59:45;1.60;;;1.20;;
2706;SDS011;7819;48.046;7.642;2023-08-06T07:02:10;1.37;;;1.10;;
2706;SDS011;7819;48.046;7.642;2023-08-06T07:04:35;3.33;;;1.00;;
2706;SDS011;7819;48.046;7.642;2023-08-06T07:07:00;1.77;;;0.93;;
2706;SDS011;7819;48.046;7.642;2023-08-06T07:09:26;1.67;;;1.07;;
2706;SDS011;7819;48.046;7.642;2023-08-06T07:11:51;2.50;;;1.73;;
2706;SDS011;7819;48.046;7.642;2023-08-06T07:14:17;1.50;;;0.70;;
2706;SDS011;7819;48.046;7.642;2023-08-06T07:16:42;1.00;;;0.73;;
2706;SDS011;7819;48.046;7.642;2023-08-06T07:19:07;0.80;;;0.50;;
2706;SDS011;7819;48.046;7.642;2023-08-06T07:21:32;1.83;;;0.80;;
2706;SDS011;7819;48.046;7.642;2023-08-06T07:23:57;1.93;;;0.80;;
2706;SDS011;7819;48.046;7.642;2023-08-06T07:26:24;1.00;;;0.80;;
2706;SDS011;7819;48.046;7.642;2023-08-06T07:28:49;1.93;;;0.70;;
2706;SDS011;7819;48.046;7.642;2023-08-06T07:31:14;3.27;;;0.70;;
2706;SDS011;7819;48.046;7.642;2023-08-06T07:33:40;2.50;;;0.83;;
2706;SDS011;7819;48.046;7.642;2023-08-06T07:36:13;1.00;;;0.40;;
2706;SDS011;7819;48.046;7.642;2023-08-06T07:38:38;0.90;;;0.60;;
2706;SDS011;7819;48.046;7.642;2023-08-06T07:41:03;1.33;;;0.70;;
2706;SDS011;7819;48.046;7.642;2023-08-06T07:43:29;0.80;;;0.50;;
2706;SDS011;7819;48.046;7.642;2023-08-06T07:45:57;1.57;;;0.50;;
2706;SDS011;7819;48.046;7.642;2023-08-06T07:48:22;0.83;;;0.43;;
2706;SDS011;7819;48.046;7.642;2023-08-06T07:50:50;0.87;;;0.40;;
2706;SDS011;7819;48.046;7.642;2023-08-06T07:53:18;0.80;;;0.40;;
2706;SDS011;7819;48.046;7.642;2023-08-06T07:55:43;0.93;;;0.40;;
2706;SDS011;7819;48.046;7.642;2023-08-06T07:58:08;0.70;;;0.40;;
2706;SDS011;7819;48.046;7.642;2023-08-06T08:00:33;0.70;;;0.40;;
2706;SDS011;7819;48.046;7.642;2023-08-06T08:02:58;1.60;;;1.20;;
2706;SDS011;7819;48.046;7.642;2023-08-06T08:05:24;1.90;;;0.70;;
2706;SDS011;7819;48.046;7.642;2023-08-06T08:07:49;1.00;;;0.80;;
2706;SDS011;7819;48.046;7.642;2023-08-06T08:10:14;1.00;;;0.73;;
2706;SDS011;7819;48.046;7.642;2023-08-06T08:12:39;2.20;;;1.23;;
2706;SDS011;7819;48.046;7.642;2023-08-06T08:15:04;1.57;;;1.00;;
2706;SDS011;7819;48.046;7.642;2023-08-06T08:17:30;1.00;;;0.70;;
2706;SDS011;7819;48.046;7.642;2023-08-06T08:19:55;1.20;;;0.70;;
2706;SDS011;7819;48.046;7.642;2023-08-06T08:22:20;1.93;;;1.00;;
2706;SDS011;7819;48.046;7.642;2023-08-06T08:24:45;0.97;;;0.50;;
2706;SDS011;7819;48.046;7.642;2023-08-06T08:27:10;1.23;;;1.00;;
2706;SDS011;7819;48.046;7.642;2023-08-06T08:29:36;1.17;;;0.60;;
2706;SDS011;7819;48.046;7.642;2023-08-06T08:32:01;0.90;;;0.77;;
2706;SDS011;7819;48.046;7.642;2023-08-06T08:34:26;2.03;;;0.80;;
2706;SDS011;7819;48.046;7.642;2023-08-06T08:36:51;0.83;;;0.60;;
2706;SDS011;7819;48.046;7.642;2023-08-06T08:39:16;1.67;;;0.80;;
2706;SDS011;7819;48.046;7.642;2023-08-06T08:41:41;1.20;;;0.83;;
2706;SDS011;7819;48.046;7.642;2023-08-06T08:44:10;1.00;;;0.70;;
2706;SDS011;7819;48.046;7.642;2023-08-06T08:46:36;0.80;;;0.50;;
2706;SDS011;7819;48.046;7.642;2023-08-06T08:49:01;3.60;;;1.30;;
2706;SDS011;7819;48.046;7.642;2023-08-06T08:51:27;0.83;;;0.50;;
2706;SDS011;7819;48.046;7.642;2023-08-06T08:53:52;1.40;;;0.50;;
2706;SDS011;7819;48.046;7.642;2023-08-06T08:56:21;0.90;;;0.50;;
2706;SDS011;7819;48.046;7.642;2023-08-06T08:58:46;0.80;;;0.47;;
2706;SDS011;7819;48.046;7.642;2023-08-06T09:01:11;1.20;;;0.50;;
2706;SDS011;7819;48.046;7.642;2023-08-06T09:03:36;1.37;;;0.50;;
2706;SDS011;7819;48.046;7.642;2023-08-06T09:06:02;1.70;;;0.50;;
2706;SDS011;7819;48.046;7.642;2023-08-06T09:08:30;1.00;;;0.50;;
2706;SDS011;7819;48.046;7.642;2023-08-06T09:10:59;0.80;;;0.50;;
2706;SDS011;7819;48.046;7.642;2023-08-06T09:13:25;1.47;;;0.50;;
2706;SDS011;7819;48.046;7.642;2023-08-06T09:15:50;0.80;;;0.47;;
2706;SDS011;7819;48.046;7.642;2023-08-06T09:18:24;0.90;;;0.60;;
2706;SDS011;7819;48.046;7.642;2023-08-06T09:20:49;0.80;;;0.50;;
2706;SDS011;7819;48.046;7.642;2023-08-06T09:23:15;0.70;;;0.40;;
2706;SDS011;7819;48.046;7.642;2023-08-06T09:25:40;0.80;;;0.50;;
2706;SDS011;7819;48.046;7.642;2023-08-06T09:28:08;1.13;;;0.50;;
2706;SDS011;7819;48.046;7.642;2023-08-06T09:30:34;0.83;;;0.60;;
2706;SDS011;7819;48.046;7.642;2023-08-06T09:32:59;0.80;;;0.40;;
2706;SDS011;7819;48.046;7.642;2023-08-06T09:35:25;0.70;;;0.40;;
2706;SDS011;7819;48.046;7.642;2023-08-06T09:37:50;0.80;;;0.40;;
2706;SDS011;7819;48.046;7.642;2023-08-06T09:40:24;1.10;;;0.50;;
2706;SDS011;7819;48.046;7.642;2023-08-06T09:42:50;1.30;;;0.50;;
2706;SDS011;7819;48.046;7.642;2023-08-06T09:45:15;1.63;;;0.50;;
2706;SDS011;7819;48.046;7.642;2023-08-06T09:47:41;0.70;;;0.40;;
2706;SDS011;7819;48.046;7.642;2023-08-06T09:50:06;1.17;;;1.07;;
2706;SDS011;7819;48.046;7.642;2023-08-06T09:52:39;0.70;;;0.40;;
2706;SDS011;7819;48.046;7.642;2023-08-06T09:55:05;1.77;;;0.40;;
2706;SDS011;7819;48.046;7.642;2023-08-06T09:57:30;0.70;;;0.30;;
2706;SDS011;7819;48.046;7.642;2023-08-06T09:59:56;0.80;;;0.40;;
2706;SDS011;7819;48.046;7.642;2023-08-06T10:02:21;0.70;;;0.40;;
2706;SDS011;7819;48.046;7.642;2023-08-06T10:04:49;0.70;;;0.30;;
2706;SDS011;7819;48.046;7.642;2023-08-06T10:07:15;0.80;;;0.40;;
2706;SDS011;7819;48.046;7.642;2023-08-06T10:09:43;0.80;;;0.40;;
2706;SDS011;7819;48.046;7.642;2023-08-06T10:12:08;0.83;;;0.43;;
2706;SDS011;7819;48.046;7.642;2023-08-06T10:14:35;0.90;;;0.40;;
2706;SDS011;7819;48.046;7.642;2023-08-06T10:17:02;0.80;;;0.40;;
2706;SDS011;7819;48.046;7.642;2023-08-06T10:19:27;0.70;;;0.40;;
2706;SDS011;7819;48.046;7.642;2023-08-06T10:24:48;0.73;;;0.40;;
2706;SDS011;7819;48.046;7.642;2023-08-06T10:27:13;1.10;;;0.97;;
2706;SDS011;7819;48.046;7.642;2023-08-06T10:29:39;0.90;;;0.47;;
2706;SDS011;7819;48.046;7.642;2023-08-06T10:32:04;1.40;;;0.53;;
2706;SDS011;7819;48.046;7.642;2023-08-06T10:37:15;0.90;;;0.40;;
2706;SDS011;7819;48.046;7.642;2023-08-06T10:39:47;0.70;;;0.30;;
2706;SDS011;7819;48.046;7.642;2023-08-06T10:42:22;0.90;;;0.50;;
2706;SDS011;7819;48.046;7.642;2023-08-06T10:47:37;1.00;;;0.60;;
2706;SDS011;7819;48.046;7.642;2023-08-06T10:50:02;0.80;;;0.40;;
2706;SDS011;7819;48.046;7.642;2023-08-06T10:52:28;0.80;;;0.50;;
2706;SDS011;7819;48.046;7.642;2023-08-06T10:54:54;0.70;;;0.40;;
2706;SDS011;7819;48.046;7.642;2023-08-06T10:57:19;0.70;;;0.30;;
2706;SDS011;7819;48.046;7.642;2023-08-06T10:59:44;0.77;;;0.37;;
2706;SDS011;7819;48.046;7.642;2023-08-06T11:02:09;0.80;;;0.30;;
2706;SDS011;7819;48.046;7.642;2023-08-06T11:04:35;0.80;;;0.40;;
2706;SDS011;7819;48.046;7.642;2023-08-06T11:07:00;0.77;;;0.40;;
2706;SDS011;7819;48.046;7.642;2023-08-06T11:09:25;0.90;;;0.40;;
2706;SDS011;7819;48.046;7.642;2023-08-06T11:11:51;1.20;;;0.50;;
2706;SDS011;7819;48.046;7.642;2023-08-06T11:14:16;1.73;;;0.40;;
2706;SDS011;7819;48.046;7.642;2023-08-06T11:16:42;0.90;;;0.40;;
2706;SDS011;7819;48.046;7.642;2023-08-06T11:19:07;0.80;;;0.30;;
2706;SDS011;7819;48.046;7.642;2023-08-06T11:21:33;0.70;;;0.30;;
2706;SDS011;7819;48.046;7.642;2023-08-06T11:23:58;0.97;;;0.87;;
2706;SDS011;7819;48.046;7.642;2023-08-06T11:26:23;0.70;;;0.30;;
2706;SDS011;7819;48.046;7.642;2023-08-06T11:28:49;0.90;;;0.30;;
2706;SDS011;7819;48.046;7.642;2023-08-06T11:31:20;0.73;;;0.30;;
2706;SDS011;7819;48.046;7.642;2023-08-06T11:33:45;1.20;;;0.60;;
2706;SDS011;7819;48.046;7.642;2023-08-06T11:36:11;0.80;;;0.40;;
2706;SDS011;7819;48.046;7.642;2023-08-06T11:38:36;1.10;;;0.50;;
2706;SDS011;7819;48.046;7.642;2023-08-06T11:41:01;0.90;;;0.50;;
2706;SDS011;7819;48.046;7.642;2023-08-06T11:43:29;0.80;;;0.40;;
2706;SDS011;7819;48.046;7.642;2023-08-06T11:45:55;1.30;;;0.70;;
2706;SDS011;7819;48.046;7.642;2023-08-06T11:48:21;1.07;;;0.47;;
2706;SDS011;7819;48.046;7.642;2023-08-06T11:50:46;0.90;;;0.40;;
2706;SDS011;7819;48.046;7.642;2023-08-06T11:53:14;0.97;;;0.50;;
2706;SDS011;7819;48.046;7.642;2023-08-06T11:55:40;1.50;;;0.30;;
2706;SDS011;7819;48.046;7.642;2023-08-06T11:58:05;0.80;;;0.40;;
2706;SDS011;7819;48.046;7.642;2023-08-06T12:00:31;1.10;;;0.40;;
2706;SDS011;7819;48.046;7.642;2023-08-06T12:02:56;1.10;;;0.40;;
2706;SDS011;7819;48.046;7.642;2023-08-06T12:05:22;2.60;;;0.70;;
2706;SDS011;7819;48.046;7.642;2023-08-06T12:07:51;1.07;;;0.40;;
2706;SDS011;7819;48.046;7.642;2023-08-06T12:10:16;1.23;;;0.50;;
2706;SDS011;7819;48.046;7.642;2023-08-06T12:12:42;0.80;;;0.30;;
2706;SDS011;7819;48.046;7.642;2023-08-06T12:15:08;2.00;;;0.60;;
2706;SDS011;7819;48.046;7.642;2023-08-06T12:17:34;2.63;;;0.67;;
2706;SDS011;7819;48.046;7.642;2023-08-06T12:19:59;1.10;;;0.50;;
2706;SDS011;7819;48.046;7.642;2023-08-06T12:22:25;1.67;;;0.60;;
2706;SDS011;7819;48.046;7.642;2023-08-06T12:24:50;1.30;;;0.50;;
2706;SDS011;7819;48.046;7.642;2023-08-06T12:27:15;1.20;;;0.50;;
2706;SDS011;7819;48.046;7.642;2023-08-06T12:29:43;1.00;;;0.60;;
2706;SDS011;7819;48.046;7.642;2023-08-06T12:32:09;1.07;;;0.40;;
2706;SDS011;7819;48.046;7.642;2023-08-06T12:34:34;0.90;;;0.40;;
2706;SDS011;7819;48.046;7.642;2023-08-06T12:37:00;0.90;;;0.30;;
2706;SDS011;7819;48.046;7.642;2023-08-06T12:39:25;0.90;;;0.50;;
2706;SDS011;7819;48.046;7.642;2023-08-06T12:41:53;0.90;;;0.50;;
2706;SDS011;7819;48.046;7.642;2023-08-06T12:44:18;0.80;;;0.30;;
2706;SDS011;7819;48.046;7.642;2023-08-06T12:46:43;1.10;;;0.40;;
2706;SDS011;7819;48.046;7.642;2023-08-06T12:49:08;0.80;;;0.30;;
2706;SDS011;7819;48.046;7.642;2023-08-06T12:51:34;0.90;;;0.40;;
2706;SDS011;7819;48.046;7.642;2023-08-06T12:53:59;1.20;;;0.50;;
2706;SDS011;7819;48.046;7.642;2023-08-06T12:56:24;2.83;;;0.70;;
2706;SDS011;7819;48.046;7.642;2023-08-06T12:58:49;0.90;;;0.50;;
2706;SDS011;7819;48.046;7.642;2023-08-06T13:01:15;0.90;;;0.40;;
2706;SDS011;7819;48.046;7.642;2023-08-06T13:03:40;0.90;;;0.50;;
2706;SDS011;7819;48.046;7.642;2023-08-06T13:06:05;1.20;;;0.43;;
2706;SDS011;7819;48.046;7.642;2023-08-06T13:08:30;0.80;;;0.40;;
2706;SDS011;7819;48.046;7.642;2023-08-06T13:10:55;1.00;;;0.47;;
2706;SDS011;7819;48.046;7.642;2023-08-06T13:13:21;1.47;;;0.60;;
2706;SDS011;7819;48.046;7.642;2023-08-06T13:15:46;0.90;;;0.50;;
2706;SDS011;7819;48.046;7.642;2023-08-06T13:18:11;0.90;;;0.40;;
2706;SDS011;7819;48.046;7.642;2023-08-06T13:20:37;0.90;;;0.40;;
2706;SDS011;7819;48.046;7.642;2023-08-06T13:23:02;1.27;;;0.60;;
2706;SDS011;7819;48.046;7.642;2023-08-06T13:25:28;1.00;;;0.50;;
2706;SDS011;7819;48.046;7.642;2023-08-06T13:27:53;1.57;;;1.10;;
2706;SDS011;7819;48.046;7.642;2023-08-06T13:30:19;1.53;;;0.50;;
2706;SDS011;7819;48.046;7.642;2023-08-06T13:32:44;1.30;;;0.50;;
2706;SDS011;7819;48.046;7.642;2023-08-06T13:35:10;2.43;;;0.90;;
2706;SDS011;7819;48.046;7.642;2023-08-06T13:37:35;1.30;;;0.63;;
2706;SDS011;7819;48.046;7.642;2023-08-06T13:40:00;1.50;;;0.60;;
2706;SDS011;7819;48.046;7.642;2023-08-06T13:42:25;4.47;;;0.93;;
2706;SDS011;7819;48.046;7.642;2023-08-06T13:44:50;1.40;;;0.70;;
2706;SDS011;7819;48.046;7.642;2023-08-06T13:47:16;2.50;;;0.97;;
2706;SDS011;7819;48.046;7.642;2023-08-06T13:49:41;1.43;;;0.70;;
2706;SDS011;7819;48.046;7.642;2023-08-06T13:52:06;1.13;;;0.70;;
2706;SDS011;7819;48.046;7.642;2023-08-06T13:54:31;2.10;;;0.80;;
2706;SDS011;7819;48.046;7.642;2023-08-06T13:56:56;2.20;;;0.97;;
2706;SDS011;7819;48.046;7.642;2023-08-06T13:59:22;1.20;;;0.60;;
2706;SDS011;7819;48.046;7.642;2023-08-06T14:01:49;1.97;;;0.40;;
2706;SDS011;7819;48.046;7.642;2023-08-06T14:04:14;1.47;;;1.10;;
2706;SDS011;7819;48.046;7.642;2023-08-06T14:06:39;1.00;;;0.43;;
2706;SDS011;7819;48.046;7.642;2023-08-06T14:09:04;1.87;;;0.70;;
2706;SDS011;7819;48.046;7.642;2023-08-06T14:11:29;8.50;;;0.90;;
2706;SDS011;7819;48.046;7.642;2023-08-06T14:13:55;1.10;;;0.50;;
2706;SDS011;7819;48.046;7.642;2023-08-06T14:16:20;1.30;;;0.80;;
2706;SDS011;7819;48.046;7.642;2023-08-06T14:18:45;1.20;;;0.70;;
2706;SDS011;7819;48.046;7.642;2023-08-06T14:21:10;1.47;;;0.70;;
2706;SDS011;7819;48.046;7.642;2023-08-06T14:23:35;1.90;;;0.77;;
2706;SDS011;7819;48.046;7.642;2023-08-06T14:26:01;1.00;;;0.50;;
2706;SDS011;7819;48.046;7.642;2023-08-06T14:28:26;1.07;;;0.57;;
2706;SDS011;7819;48.046;7.642;2023-08-06T14:30:51;1.03;;;0.50;;
2706;SDS011;7819;48.046;7.642;2023-08-06T14:33:16;1.40;;;0.53;;
2706;SDS011;7819;48.046;7.642;2023-08-06T14:35:41;1.30;;;0.70;;
2706;SDS011;7819;48.046;7.642;2023-08-06T14:38:07;1.10;;;0.53;;
2706;SDS011;7819;48.046;7.642;2023-08-06T14:40:32;2.47;;;0.77;;
2706;SDS011;7819;48.046;7.642;2023-08-06T14:43:02;1.20;;;0.70;;
2706;SDS011;7819;48.046;7.642;2023-08-06T14:45:27;1.37;;;0.80;;
2706;SDS011;7819;48.046;7.642;2023-08-06T14:47:52;1.83;;;0.60;;
2706;SDS011;7819;48.046;7.642;2023-08-06T14:50:18;1.17;;;0.60;;
2706;SDS011;7819;48.046;7.642;2023-08-06T14:52:43;1.30;;;0.80;;
2706;SDS011;7819;48.046;7.642;2023-08-06T14:55:08;1.90;;;1.00;;
2706;SDS011;7819;48.046;7.642;2023-08-06T14:57:33;2.00;;;0.90;;
2706;SDS011;7819;48.046;7.642;2023-08-06T14:59:58;1.20;;;0.70;;
2706;SDS011;7819;48.046;7.642;2023-08-06T15:02:24;3.57;;;1.20;;
2706;SDS011;7819;48.046;7.642;2023-08-06T15:04:50;1.43;;;0.63;;
2706;SDS011;7819;48.046;7.642;2023-08-06T15:07:15;2.23;;;1.13;;
2706;SDS011;7819;48.046;7.642;2023-08-06T15:09:40;1.37;;;0.77;;
2706;SDS011;7819;48.046;7.642;2023-08-06T15:12:06;1.70;;;1.03;;
2706;SDS011;7819;48.046;7.642;2023-08-06T15:14:31;1.53;;;0.77;;
2706;SDS011;7819;48.046;7.642;2023-08-06T15:16:56;3.90;;;1.20;;